Time;durP1;ratioP1;P1;durP2;ratioP2;P2;SDS_P1;SDS_P2;PMS_P1;PMS_P2;Temp;Humidity;BMP_temperature;BMP_pressure;BME280_temperature;BME280_humidity;BME280_pressure;Samples;Min_cycle;Max_cycle;Signal;HPM_P1;HPM_P2
2021/04/03 00:02:33;;;;;;;5.68;2.13;;;;;;;5.39;53.42;97769.44;10086139;29;20056;-75
2021/04/03 00:07:53;;;;;;;9.63;2.50;;;;;;;5.16;53.43;97769.53;10110674;29;20052;-76
2021/04/03 00:13:13;;;;;;;4.78;1.85;;;;;;;4.94;53.89;97773.81;10097833;29;20111;-76
2021/04/03 00:18:33;;;;;;;9.30;2.42;;;;;;;4.71;54.28;97765.53;10110667;29;20077;-76
2021/04/03 00:23:53;;;;;;;6.70;2.47;;;;;;;4.60;54.33;97763.91;10084728;29;20045;-75
2021/04/03 00:29:13;;;;;;;8.63;2.58;;;;;;;4.47;54.87;97766.84;10097630;29;20045;-75
2021/04/03 00:34:32;;;;;;;5.13;2.30;;;;;;;4.37;54.85;97759.69;10097935;29;20044;-76
2021/04/03 00:39:52;;;;;;;9.65;3.40;;;;;;;4.24;55.73;97753.03;10097292;29;20060;-76
2021/04/03 00:45:14;;;;;;;7.82;2.95;;;;;;;4.10;55.21;97760.00;10084718;29;20073;-75
2021/04/03 00:50:37;;;;;;;6.07;3.33;;;;;;;4.03;55.29;97752.44;10109940;29;20048;-75
2021/04/03 00:55:57;;;;;;;9.43;3.70;;;;;;;3.99;56.71;97755.59;10110564;29;20049;-76
2021/04/03 01:01:21;;;;;;;7.63;4.15;;;;;;;3.94;55.55;97752.97;10097916;29;20131;-76
2021/04/03 01:06:44;;;;;;;7.47;3.55;;;;;;;3.98;56.70;97731.28;10085490;29;20104;-76
2021/04/03 01:12:25;;;;;;;7.78;4.05;;;;;;;4.05;57.14;97738.81;10097305;29;20101;-76
2021/04/03 01:18:04;;;;;;;4.38;3.55;;;;;;;4.29;57.02;97743.81;10110841;29;20464;-76
2021/04/03 01:24:15;;;;;;;5.50;2.88;;;;;;;4.52;56.75;97748.59;10098461;29;20045;-76
2021/04/03 01:30:01;;;;;;;8.77;3.47;;;;;;;4.64;56.28;97729.63;10108884;29;20049;-76
2021/04/03 01:35:39;;;;;;;7.45;3.33;;;;;;;4.84;55.69;97726.63;10129308;29;20110;-76
2021/04/03 01:41:06;;;;;;;5.97;3.33;;;;;;;5.05;56.14;97729.16;10118678;29;20507;-75
2021/04/03 01:46:35;;;;;;;5.65;3.03;;;;;;;5.18;56.01;97722.66;10106544;29;20047;-75
2021/04/03 01:51:56;;;;;;;6.88;3.33;;;;;;;5.22;56.83;97717.50;10091198;29;20049;-76
2021/04/03 01:57:17;;;;;;;5.10;3.00;;;;;;;5.27;56.37;97713.75;10116238;29;20045;-76
2021/04/03 02:02:40;;;;;;;4.47;3.03;;;;;;;5.29;56.28;97716.69;10104690;29;20056;-76
2021/04/03 02:08:01;;;;;;;7.55;2.90;;;;;;;5.30;56.85;97712.63;10089949;29;20052;-76
2021/04/03 02:13:22;;;;;;;6.22;3.25;;;;;;;5.29;55.97;97716.69;10102798;29;20071;-76
2021/04/03 02:18:46;;;;;;;4.93;2.80;;;;;;;5.31;56.76;97710.63;10103319;29;20048;-75
2021/04/03 02:24:08;;;;;;;5.22;2.60;;;;;;;5.33;56.79;97700.47;10102663;29;20041;-75
2021/04/03 02:29:28;;;;;;;6.03;2.78;;;;;;;5.38;56.78;97707.81;10102291;29;20449;-76
2021/04/03 02:34:48;;;;;;;5.15;2.90;;;;;;;5.39;57.85;97709.28;10075955;29;20378;-76
2021/04/03 02:40:11;;;;;;;6.07;3.10;;;;;;;5.42;56.92;97707.44;10114280;29;20052;-75
2021/04/03 02:45:35;;;;;;;6.82;3.13;;;;;;;5.43;57.71;97717.94;10087947;29;20076;-75
2021/04/03 02:50:56;;;;;;;7.15;3.47;;;;;;;5.45;58.85;97712.59;10114586;29;20068;-76
2021/04/03 02:56:19;;;;;;;3.92;2.65;;;;;;;5.47;57.48;97712.75;10127091;29;20400;-75
2021/04/03 03:01:39;;;;;;;8.02;3.45;;;;;;;5.50;57.99;97708.13;10087974;29;20118;-76
2021/04/03 03:07:00;;;;;;;5.40;3.38;;;;;;;5.44;58.95;97699.31;10100416;29;20485;-76
2021/04/03 03:12:24;;;;;;;7.00;3.63;;;;;;;5.38;58.35;97707.81;10101131;29;20041;-76
2021/04/03 03:17:45;;;;;;;5.93;3.42;;;;;;;5.33;59.02;97711.53;10088404;29;20053;-75
2021/04/03 03:23:06;;;;;;;6.32;3.33;;;;;;;5.39;58.22;97711.31;10100800;29;20139;-75
2021/04/03 03:28:27;;;;;;;5.68;3.30;;;;;;;5.33;59.39;97703.22;10074383;29;20049;-76
2021/04/03 03:33:47;;;;;;;6.80;2.67;;;;;;;5.37;59.03;97708.38;10100035;29;20044;-76
2021/04/03 03:39:08;;;;;;;3.38;2.85;;;;;;;5.25;59.45;97704.56;10112714;29;20154;-76
2021/04/03 03:44:29;;;;;;;5.25;2.78;;;;;;;5.20;59.92;97699.94;10099371;29;20045;-76
2021/04/03 03:49:50;;;;;;;3.90;2.55;;;;;;;5.13;59.79;97698.72;10086379;29;20052;-76
2021/04/03 03:55:11;;;;;;;4.13;2.80;;;;;;;5.02;60.41;97724.75;10086256;29;20412;-76
2021/04/03 04:00:32;;;;;;;3.60;2.63;;;;;;;5.03;60.40;97733.78;10099512;29;20048;-76
2021/04/03 04:06:02;;;;;;;4.95;3.40;;;;;;;5.00;60.80;97743.91;10113879;29;20056;-77
2021/04/03 04:11:21;;;;;;;5.93;2.90;;;;;;;4.93;61.07;97736.41;10085566;29;20048;-75
2021/04/03 04:16:47;;;;;;;3.53;2.70;;;;;;;4.83;61.24;97744.53;10098940;29;20448;-76
2021/04/03 04:22:07;;;;;;;2.97;2.67;;;;;;;4.75;61.67;97749.34;10110700;29;20048;-76
2021/04/03 04:27:27;;;;;;;3.30;2.40;;;;;;;4.65;61.60;97764.28;10096152;29;20425;-76
2021/04/03 04:32:48;;;;;;;3.92;2.03;;;;;;;4.67;62.13;97776.25;10101462;29;20453;-76
2021/04/03 04:38:10;;;;;;;2.10;1.60;;;;;;;4.74;62.46;97774.78;10123029;29;20051;-76
2021/04/03 04:43:35;;;;;;;2.58;1.30;;;;;;;4.65;61.45;97778.84;10097155;29;20413;-76
2021/04/03 04:48:56;;;;;;;2.53;1.90;;;;;;;4.67;62.57;97781.78;10083487;29;20099;-74
2021/04/03 04:54:20;;;;;;;2.58;1.88;;;;;;;4.70;62.43;97786.19;10084659;29;20049;-75
2021/04/03 04:59:42;;;;;;;2.00;1.77;;;;;;;4.74;62.55;97783.81;10108419;29;20052;-74
2021/04/03 05:05:09;;;;;;;2.55;1.63;;;;;;;4.75;63.00;97792.84;10109322;29;20040;-75
2021/04/03 05:10:29;;;;;;;2.58;1.88;;;;;;;4.86;63.05;97795.22;10103600;29;20481;-75
2021/04/03 05:15:57;;;;;;;2.03;1.45;;;;;;;5.01;63.14;97799.97;10116320;29;20044;-75
2021/04/03 05:21:17;;;;;;;2.55;1.75;;;;;;;5.12;63.05;97796.84;10103438;29;20052;-75
2021/04/03 05:26:37;;;;;;;3.10;1.85;;;;;;;5.13;63.65;97792.78;10129102;29;20052;-74
2021/04/03 05:31:57;;;;;;;3.35;2.10;;;;;;;5.18;63.43;97806.41;10103077;29;20480;-75
2021/04/03 05:37:17;;;;;;;4.10;2.13;;;;;;;5.25;62.94;97816.00;10128787;29;20045;-75
2021/04/03 05:42:37;;;;;;;2.83;1.85;;;;;;;5.35;63.42;97822.44;10115780;29;20044;-77
2021/04/03 05:47:58;;;;;;;2.78;1.92;;;;;;;5.40;62.96;97831.81;10102919;29;20051;-75
2021/04/03 05:53:17;;;;;;;3.55;2.00;;;;;;;5.44;63.12;97837.72;10102699;29;20374;-76
2021/04/03 05:58:37;;;;;;;3.72;2.50;;;;;;;5.43;63.09;97844.56;10116350;29;20393;-76
2021/04/03 06:03:57;;;;;;;4.60;1.75;;;;;;;5.41;63.36;97856.19;10077276;29;20065;-76
2021/04/03 06:09:17;;;;;;;3.75;2.05;;;;;;;5.45;64.33;97861.34;10116233;29;20054;-75
2021/04/03 06:14:36;;;;;;;3.70;2.20;;;;;;;5.57;63.37;97867.22;10116036;29;20049;-75
2021/04/03 06:19:56;;;;;;;3.22;1.95;;;;;;;5.70;63.39;97864.25;10088144;29;20539;-75
2021/04/03 06:25:16;;;;;;;3.97;1.88;;;;;;;6.08;63.48;97860.59;10089187;29;20052;-74
2021/04/03 06:30:38;;;;;;;3.30;2.00;;;;;;;6.77;63.37;97875.53;10090478;29;20096;-75
2021/04/03 06:36:08;;;;;;;4.05;2.00;;;;;;;8.83;62.71;97873.19;10089007;29;20409;-76
2021/04/03 06:41:30;;;;;;;3.50;2.13;;;;;;;8.82;60.30;97885.63;10101089;29;20417;-75
2021/04/03 06:46:52;;;;;;;2.88;2.20;;;;;;;8.19;59.69;97888.34;10088713;29;20493;-75
2021/04/03 06:52:13;;;;;;;3.67;1.58;;;;;;;7.55;60.09;97882.59;10075359;29;20052;-75
2021/04/03 06:57:34;;;;;;;4.82;2.20;;;;;;;7.63;61.31;97899.19;10112804;29;20052;-75
2021/04/03 07:02:59;;;;;;;2.90;1.90;;;;;;;9.26;61.20;97912.59;10099768;29;20060;-75
2021/04/03 07:08:20;;;;;;;3.28;1.83;;;;;;;9.54;59.84;97907.66;10100129;29;20055;-75
2021/04/03 07:13:40;;;;;;;4.35;2.38;;;;;;;10.58;58.40;97915.88;10112310;29;20049;-76
2021/04/03 07:19:00;;;;;;;4.53;2.67;;;;;;;10.18;58.23;97916.50;10112330;29;20100;-75
2021/04/03 07:24:20;;;;;;;3.70;2.33;;;;;;;17.83;58.84;97923.50;10097307;29;20048;-75
2021/04/03 07:29:50;;;;;;;4.15;2.53;;;;;;;25.02;51.41;97923.69;10097829;29;20048;-75
2021/04/03 07:35:22;;;;;;;4.00;1.90;;;;;;;37.86;27.55;97941.25;10098328;29;20489;-73
2021/04/03 07:40:44;;;;;;;3.70;1.50;;;;;;;42.59;15.56;97946.19;10111110;29;20079;-76
2021/04/03 07:46:19;;;;;;;1.70;1.40;;;;;;;46.34;9.01;97945.69;10110826;29;20397;-75
2021/04/03 07:51:39;;;;;;;4.10;1.48;;;;;;;49.36;6.01;97942.13;10124416;29;20113;-76
2021/04/03 07:57:04;;;;;;;1.88;1.25;;;;;;;49.28;5.19;97949.44;10123325;29;20131;-75
2021/04/03 08:02:25;;;;;;;2.45;1.10;;;;;;;42.49;5.66;97961.44;10097156;29;20060;-73
2021/04/03 08:07:45;;;;;;;3.58;1.73;;;;;;;30.41;10.01;97977.00;10084423;29;20055;-76
2021/04/03 08:13:05;;;;;;;2.72;1.75;;;;;;;24.20;14.28;97976.56;10084441;29;20052;-75
2021/04/03 08:18:29;;;;;;;2.75;1.75;;;;;;;20.56;17.91;97981.72;10109836;29;20048;-75
2021/04/03 08:23:51;;;;;;;4.93;1.73;;;;;;;17.94;20.12;97986.75;10083987;29;20389;-75
2021/04/03 08:29:28;;;;;;;3.17;1.70;;;;;;;19.48;24.42;97999.91;10097085;29;20064;-80
2021/04/03 08:34:48;;;;;;;4.55;1.60;;;;;;;27.33;20.11;98001.69;10096843;29;20051;-77
2021/04/03 08:40:29;;;;;;;4.90;1.88;;;;;;;27.70;16.60;98008.34;10082645;29;20123;-77
2021/04/03 08:45:49;;;;;;;2.58;1.33;;;;;;;35.85;12.25;98005.44;10122030;29;20400;-76
2021/04/03 08:51:10;;;;;;;6.47;2.00;;;;;;;34.46;8.95;98027.25;10121754;29;20048;-75
2021/04/03 08:56:36;;;;;;;3.95;2.00;;;;;;;25.24;12.84;98040.34;10108760;29;20043;-74
2021/04/03 09:01:55;;;;;;;4.53;1.90;;;;;;;19.60;17.13;98043.59;10108320;29;20060;-75
2021/04/03 09:07:34;;;;;;;5.75;2.33;;;;;;;16.86;21.54;98050.34;10095490;29;20052;-77
2021/04/03 09:12:55;;;;;;;7.78;2.00;;;;;;;31.84;17.15;98044.81;10096717;29;20070;-81
2021/04/03 09:18:15;;;;;;;5.20;2.08;;;;;;;38.78;9.75;98049.09;10095623;29;20473;-77
2021/04/03 09:23:41;;;;;;;5.43;1.60;;;;;;;30.70;10.66;98055.31;10108166;29;20485;-76
2021/04/03 09:29:09;;;;;;;3.65;1.48;;;;;;;27.58;13.49;98054.09;10108101;29;20075;-76
2021/04/03 09:34:35;;;;;;;3.05;1.73;;;;;;;27.73;13.18;98063.53;10107959;29;20041;-74
2021/04/03 09:39:56;;;;;;;3.53;1.67;;;;;;;24.22;15.03;98056.50;10108862;29;20045;-75
2021/04/03 09:45:16;;;;;;;6.38;1.65;;;;;;;21.64;17.46;98050.31;10081744;29;20415;-81
2021/04/03 09:50:37;;;;;;;3.67;1.63;;;;;;;20.60;19.29;98055.59;10107936;29;20076;-78
2021/04/03 09:55:57;;;;;;;4.75;1.30;;;;;;;28.12;17.50;98073.72;10115071;29;20123;-79
2021/04/03 10:01:17;;;;;;;3.35;1.33;;;;;;;34.85;10.41;98068.31;10089817;29;20060;-81
2021/04/03 10:06:36;;;;;;;2.75;1.45;;;;;;;28.04;11.85;98067.97;10101593;29;20045;-80
2021/04/03 10:11:57;;;;;;;3.83;1.40;;;;;;;24.48;14.19;98072.66;10088293;29;20056;-78
2021/04/03 10:17:17;;;;;;;2.95;1.33;;;;;;;22.36;15.67;98067.94;10088739;29;20044;-88
2021/04/03 10:22:37;;;;;;;3.08;1.30;;;;;;;21.75;16.83;98065.50;10101209;29;20040;-84
2021/04/03 10:27:57;;;;;;;2.88;1.23;;;;;;;23.63;16.24;98072.41;10088486;29;20488;-84
2021/04/03 10:33:17;;;;;;;3.00;1.00;;;;;;;21.63;17.37;98054.53;10101111;29;20045;-83
2021/04/03 10:38:36;;;;;;;2.17;0.90;;;;;;;22.91;17.49;98057.22;10113483;29;20059;-77
2021/04/03 10:43:57;;;;;;;3.70;1.65;;;;;;;24.31;19.03;98048.81;10072651;29;20060;-78
2021/04/03 10:49:16;;;;;;;2.75;1.10;;;;;;;26.29;16.74;98043.06;10100428;29;20055;-86
2021/04/03 10:54:36;;;;;;;2.22;0.85;;;;;;;25.47;15.63;98058.50;10086968;29;20375;-78
2021/04/03 10:59:56;;;;;;;5.07;1.30;;;;;;;22.10;16.15;98047.31;10086766;29;20401;-80
2021/04/03 11:05:16;;;;;;;4.03;1.10;;;;;;;19.93;18.03;98059.66;10111728;29;20438;-79
2021/04/03 11:10:37;;;;;;;5.03;1.60;;;;;;;18.11;19.20;98050.31;10086190;29;20844;-80
2021/04/03 11:15:56;;;;;;;5.10;0.80;;;;;;;15.36;21.68;98108.13;10111889;29;20093;-79
2021/04/03 11:21:16;;;;;;;3.25;0.52;;;;;;;13.28;25.71;98117.69;10087401;29;20044;-79
2021/04/03 11:35:32;;;;;;;2.47;0.40;;;;;;;11.12;33.45;98147.28;10144561;29;20052;-79
2021/04/03 11:41:16;;;;;;;0.45;0.20;;;;;;;10.38;32.56;98146.03;10359511;23;20060;-83
2021/04/03 11:46:36;;;;;;;2.00;0.50;;;;;;;9.96;33.58;98122.00;10193967;29;20052;-82
2021/04/03 11:51:56;;;;;;;3.28;0.60;;;;;;;11.24;34.15;98122.97;10171498;29;20312;-82
2021/04/03 11:57:17;;;;;;;0.90;0.22;;;;;;;13.06;34.01;98111.41;10159643;29;20119;-81
2021/04/03 12:02:37;;;;;;;1.30;0.50;;;;;;;14.76;33.80;98100.56;10160699;29;20048;-81
2021/04/03 12:07:57;;;;;;;1.17;0.43;;;;;;;15.72;33.04;98097.38;10130458;29;20052;-80
2021/04/03 12:13:17;;;;;;;2.50;0.75;;;;;;;16.25;32.51;98069.88;10119968;29;20041;-80
2021/04/03 12:18:37;;;;;;;2.03;0.50;;;;;;;16.81;31.89;98079.72;10127069;29;20100;-80
2021/04/03 12:23:57;;;;;;;1.15;0.50;;;;;;;17.73;31.66;98070.59;10106770;29;20044;-80
2021/04/03 12:29:17;;;;;;;1.90;0.80;;;;;;;18.06;30.81;98063.56;10107577;29;20048;-80
2021/04/03 12:34:37;;;;;;;1.55;0.75;;;;;;;17.58;30.08;98060.00;10108780;29;20418;-81
2021/04/03 12:39:57;;;;;;;1.35;0.63;;;;;;;17.21;30.20;98057.63;10108891;29;20067;-77
2021/04/03 12:45:16;;;;;;;1.58;0.80;;;;;;;17.12;29.29;98062.16;10111329;29;20501;-75
2021/04/03 12:50:36;;;;;;;3.08;1.00;;;;;;;17.02;29.64;98064.50;10083524;29;20052;-74
2021/04/03 12:56:07;;;;;;;2.00;0.77;;;;;;;17.27;29.15;98066.34;10112079;29;20049;-78
2021/04/03 13:01:26;;;;;;;1.67;0.70;;;;;;;17.24;28.83;98061.97;10099646;29;20045;-79
2021/04/03 13:06:46;;;;;;;1.73;0.82;;;;;;;17.23;28.24;98051.34;10098905;29;20060;-78
2021/04/03 13:12:07;;;;;;;2.72;0.93;;;;;;;16.96;27.64;98043.72;10112281;29;20135;-79
2021/04/03 13:17:27;;;;;;;3.08;1.17;;;;;;;15.99;27.31;98057.28;10123691;29;20077;-80
2021/04/03 13:22:51;;;;;;;3.65;0.90;;;;;;;14.86;27.73;98059.00;10601299;23;20062;-81
2021/04/03 13:28:11;;;;;;;2.88;1.10;;;;;;;14.00;28.74;98056.19;10386192;23;20062;-81
2021/04/03 13:34:40;;;;;;;3.63;1.08;;;;;;;13.69;29.33;98053.63;11451917;23;20844;31
2021/04/03 13:40:00;;;;;;;3.70;0.88;;;;;;;14.00;29.34;98066.69;10371641;23;20019;-80
2021/04/03 13:57:59;;;;;;;4.53;1.13;;;;;;;13.78;29.29;98063.25;10145472;29;20071;-81
2021/04/03 14:03:19;;;;;;;5.30;1.95;;;;;;;13.69;29.73;98064.09;10106556;29;20048;-80
2021/04/03 14:08:40;;;;;;;3.97;0.90;;;;;;;14.06;29.15;98063.47;10636734;23;20056;-79
2021/04/03 14:14:29;;;;;;;3.53;0.60;;;;;;;13.58;28.93;98068.38;10174484;29;20052;-81
2021/04/03 14:19:52;;;;;;;4.25;1.00;;;;;;;12.84;29.27;98060.28;10148546;29;20424;-79
2021/04/03 14:33:52;;;;;;;2.78;0.70;;;;;;;11.72;30.51;98055.00;10185765;29;20041;-78
2021/04/03 14:39:15;;;;;;;3.63;1.10;;;;;;;11.72;31.17;98068.97;10171759;29;20048;-78
2021/04/03 14:44:35;;;;;;;4.32;1.23;;;;;;;11.53;31.26;98067.00;10147370;29;20096;-79
2021/04/03 14:49:57;;;;;;;4.07;1.20;;;;;;;10.94;32.23;98076.88;10145751;29;20069;-77
2021/04/03 14:55:17;;;;;;;4.50;0.85;;;;;;;10.24;33.67;98098.31;10143341;29;20051;-77
2021/04/03 15:26:40;;;;;;;2.40;0.73;;;;;;;10.04;35.87;98039.66;10180894;29;20134;-78
2021/04/03 15:32:31;;;;;;;3.53;1.10;;;;;;;9.88;35.96;98049.59;10152791;29;20152;-78
2021/04/03 15:47:59;;;;;;;3.05;0.50;;;;;;;9.68;35.71;98048.09;10179924;29;20064;-76
2021/04/03 15:54:48;;;;;;;1.77;0.52;;;;;;;9.59;35.37;98054.34;10159520;29;20135;-80
2021/04/03 16:09:36;;;;;;;3.20;1.00;;;;;;;9.45;35.18;98065.88;10168676;29;20052;-79
2021/04/03 16:15:24;;;;;;;2.90;0.82;;;;;;;9.31;35.22;98061.28;10160042;29;20428;-79
2021/04/03 16:20:44;;;;;;;4.00;0.60;;;;;;;9.28;34.57;98071.53;10127291;29;20074;-80
2021/04/03 16:26:04;;;;;;;2.45;0.63;;;;;;;9.20;34.56;98068.13;10183140;23;20044;-82
2021/04/03 16:31:24;;;;;;;1.27;0.52;;;;;;;9.07;33.90;98068.47;10299021;23;20088;-79
2021/04/03 16:36:43;;;;;;;4.90;0.70;;;;;;;8.81;33.53;98076.22;10061870;29;20045;-81
2021/04/03 16:59:36;;;;;;;2.20;0.57;;;;;;;7.95;34.61;98096.38;10716021;23;20211;-79
2021/04/03 17:04:59;;;;;;;2.67;0.80;;;;;;;7.82;34.99;98105.03;10278559;23;20067;-81
2021/04/03 17:10:19;;;;;;;2.33;0.70;;;;;;;7.74;35.09;98115.44;10120221;29;20059;-79
2021/04/03 17:15:39;;;;;;;2.35;0.63;;;;;;;7.61;35.29;98119.22;10098495;29;20071;-80
2021/04/03 17:20:59;;;;;;;2.70;0.68;;;;;;;7.50;35.49;98122.44;10102762;29;20059;-74
2021/04/03 17:26:19;;;;;;;2.58;0.73;;;;;;;7.32;35.61;98123.66;10099040;29;20497;-75
2021/04/03 17:31:38;;;;;;;4.18;0.95;;;;;;;7.17;36.02;98130.06;10096773;29;20041;-79
2021/04/03 17:37:36;;;;;;;2.35;0.65;;;;;;;6.91;36.55;98136.09;10775164;23;21003;31
2021/04/03 17:42:56;;;;;;;3.22;1.30;;;;;;;6.68;37.10;98147.25;10024314;29;20090;-81
2021/04/03 17:48:20;;;;;;;2.55;0.82;;;;;;;6.56;37.75;98147.66;10020841;29;20050;-79
2021/04/03 17:53:40;;;;;;;3.35;0.80;;;;;;;6.47;38.13;98145.47;10011065;29;20056;-79
2021/04/03 17:59:00;;;;;;;3.05;0.98;;;;;;;6.44;37.62;98154.88;10017309;29;20026;-83
2021/04/03 18:04:20;;;;;;;2.60;0.80;;;;;;;6.59;38.21;98163.19;10059364;29;20096;-80
2021/04/03 18:09:42;;;;;;;3.70;0.90;;;;;;;6.68;38.55;98163.91;10070522;29;20061;-79
2021/04/03 18:21:22;;;;;;;4.85;1.23;;;;;;;6.69;38.67;98193.88;11802338;23;20110;-79
2021/04/03 18:39:30;;;;;;;1.88;0.70;;;;;;;6.14;44.40;98226.97;11040445;23;20119;-76
2021/04/03 18:44:50;;;;;;;2.70;0.77;;;;;;;6.03;41.88;98239.91;10154558;29;20051;-75
2021/04/03 18:50:22;;;;;;;4.30;2.08;;;;;;;5.91;43.96;98233.25;10138760;29;20048;-75
2021/04/03 18:55:42;;;;;;;2.30;0.68;;;;;;;5.78;44.03;98238.91;10139269;29;20052;-76
2021/04/03 19:01:02;;;;;;;2.05;0.70;;;;;;;5.65;43.66;98245.34;10139327;29;20048;-75
2021/04/03 19:06:22;;;;;;;1.88;0.93;;;;;;;5.54;44.61;98256.00;10141157;29;20045;-77
2021/04/03 19:11:42;;;;;;;4.03;1.10;;;;;;;5.47;45.10;98252.66;10101891;29;20056;-78
2021/04/03 19:17:02;;;;;;;3.50;1.35;;;;;;;5.40;45.45;98247.09;10089525;29;20167;-78
2021/04/03 19:22:22;;;;;;;2.33;0.77;;;;;;;5.33;45.43;98243.00;10087697;29;20080;-76
2021/04/03 19:27:41;;;;;;;2.83;0.90;;;;;;;5.36;45.83;98246.72;10087105;29;20041;-76
2021/04/03 19:33:01;;;;;;;3.53;0.90;;;;;;;5.32;46.44;98255.38;10112474;29;20045;-75
2021/04/03 19:38:21;;;;;;;2.97;0.90;;;;;;;5.34;46.16;98271.44;10112550;29;20112;-74
2021/04/03 19:43:41;;;;;;;3.20;1.00;;;;;;;5.43;46.41;98274.44;10085353;29;20040;-75
2021/04/03 19:49:01;;;;;;;2.40;1.00;;;;;;;5.57;46.50;98272.25;10085328;29;20088;-74
2021/04/03 19:54:21;;;;;;;2.88;1.00;;;;;;;5.69;46.48;98280.97;10110814;29;20378;-75
2021/04/03 19:59:40;;;;;;;3.10;0.80;;;;;;;5.78;46.83;98280.44;10096107;29;20576;-75
2021/04/03 20:05:00;;;;;;;3.95;0.95;;;;;;;5.79;46.53;98287.50;10085638;29;20052;-76
2021/04/03 20:10:20;;;;;;;2.05;0.65;;;;;;;5.82;46.35;98282.88;10099116;29;20112;-77
2021/04/03 20:15:40;;;;;;;3.22;0.60;;;;;;;5.79;46.87;98293.03;10112289;29;20048;-77
2021/04/03 20:21:00;;;;;;;2.78;0.60;;;;;;;5.75;46.78;98290.59;10112438;29;20059;-75
2021/04/03 20:26:19;;;;;;;2.20;0.63;;;;;;;5.71;46.54;98283.97;10085181;29;20409;-76
2021/04/03 20:31:39;;;;;;;3.10;0.90;;;;;;;5.65;46.90;98283.38;10098295;29;20044;-75
2021/04/03 20:36:59;;;;;;;3.45;0.93;;;;;;;5.52;46.91;98284.25;10096512;29;20048;-76
2021/04/03 20:42:19;;;;;;;2.70;0.82;;;;;;;5.37;47.21;98287.69;10097546;29;20413;-76
2021/04/03 20:47:39;;;;;;;2.58;0.80;;;;;;;5.21;48.05;98288.91;10085099;29;20048;-77
2021/04/03 20:52:59;;;;;;;2.97;0.70;;;;;;;5.20;47.41;98287.41;10071651;29;20056;-78
2021/04/03 20:58:19;;;;;;;6.57;1.00;;;;;;;5.24;47.75;98278.78;10111482;29;20053;-77
2021/04/03 21:12:09;;;;;;;3.53;1.15;;;;;;;5.24;47.98;98292.63;10140651;29;20048;-79
2021/04/03 21:17:41;;;;;;;7.22;2.00;;;;;;;5.19;48.44;98288.69;10114708;29;20044;-79
2021/04/03 21:23:09;;;;;;;2.67;1.27;;;;;;;5.15;47.98;98300.13;10113449;29;20074;-79
2021/04/03 21:28:58;;;;;;;2.83;1.25;;;;;;;5.10;48.79;98291.97;10121674;29;20127;-79
2021/04/03 21:34:26;;;;;;;3.60;1.05;;;;;;;5.09;48.29;98302.28;10114380;29;20049;-79
2021/04/03 21:40:15;;;;;;;2.97;0.90;;;;;;;5.04;48.78;98305.97;10118510;29;20072;-79
2021/04/03 21:45:42;;;;;;;2.70;0.80;;;;;;;4.96;48.73;98304.44;10100520;29;20041;-79
2021/04/03 21:51:03;;;;;;;1.45;0.77;;;;;;;4.95;48.57;98314.03;10132240;29;20061;-79
2021/04/03 21:56:54;;;;;;;4.05;0.98;;;;;;;4.98;48.90;98315.69;10128279;29;20052;-79
2021/04/03 22:02:23;;;;;;;1.98;0.85;;;;;;;4.95;49.17;98312.00;10119645;29;20052;-79
2021/04/03 22:08:11;;;;;;;4.32;1.00;;;;;;;4.82;49.45;98321.09;10107685;29;20048;-79
2021/04/03 22:13:32;;;;;;;3.28;1.42;;;;;;;4.76;49.12;98315.00;10105477;29;20491;-79
2021/04/03 22:18:55;;;;;;;3.75;1.08;;;;;;;4.71;49.75;98307.56;10119014;29;20469;-79
2021/04/03 22:24:18;;;;;;;4.03;1.27;;;;;;;4.65;49.67;98318.03;10119109;29;20066;-79
2021/04/03 22:29:40;;;;;;;3.20;1.15;;;;;;;4.63;50.04;98319.84;10119488;29;20077;-80
2021/04/03 22:35:04;;;;;;;2.08;1.00;;;;;;;4.70;50.41;98322.69;10079320;29;20056;-79
2021/04/03 22:40:30;;;;;;;2.78;1.15;;;;;;;4.77;50.26;98322.00;10093411;29;20057;-79
2021/04/03 22:46:22;;;;;;;3.33;1.20;;;;;;;4.79;50.45;98319.44;10117380;29;20469;-79
2021/04/03 22:51:46;;;;;;;4.22;1.20;;;;;;;4.80;50.02;98320.91;10117789;29;20052;-79
2021/04/03 22:57:06;;;;;;;5.07;1.70;;;;;;;4.85;50.06;98320.03;10118106;29;20097;-79
2021/04/03 23:02:55;;;;;;;4.10;1.50;;;;;;;4.80;50.86;98329.22;10184879;23;20060;-78
2021/04/03 23:08:15;;;;;;;2.78;1.67;;;;;;;4.65;50.16;98320.81;10157052;29;20048;-78
2021/04/03 23:13:39;;;;;;;3.17;1.40;;;;;;;4.51;50.73;98316.63;10169411;29;20050;-80
2021/04/03 23:19:08;;;;;;;4.07;1.47;;;;;;;4.38;50.95;98322.22;10143049;29;20044;-79
2021/04/03 23:24:28;;;;;;;3.63;1.20;;;;;;;4.28;50.75;98319.19;10156468;29;20126;-79
2021/04/03 23:29:47;;;;;;;4.45;1.48;;;;;;;4.13;51.45;98322.53;10154604;29;20044;-79
2021/04/03 23:35:08;;;;;;;3.63;1.52;;;;;;;4.05;51.27;98315.44;10140854;29;20067;-79
2021/04/03 23:40:28;;;;;;;3.58;1.60;;;;;;;3.90;51.42;98316.03;10128211;29;20052;-79
2021/04/03 23:45:48;;;;;;;4.45;1.60;;;;;;;3.78;51.72;98321.06;10153750;29;20055;-79
2021/04/03 23:51:08;;;;;;;4.50;1.50;;;;;;;3.62;52.22;98322.91;10153543;29;20044;-79
2021/04/03 23:56:27;;;;;;;3.75;1.88;;;;;;;3.48;52.28;98315.19;10140665;29;20067;-78
